Time;durP1;ratioP1;P1;durP2;ratioP2;P2;SDS_P1;SDS_P2;PMS_P1;PMS_P2;Temp;Humidity;BMP_temperature;BMP_pressure;BME280_temperature;BME280_humidity;BME280_pressure;Samples;Min_cycle;Max_cycle;Signal;HPM_P1;HPM_P2
2023/12/26 07:38:11;;;;;;;27.23;2.85;;;8.10;99.90;;;;;;6120340;22;20802;-90
2023/12/26 14:05:29;;;;;;;;;;;;;;;;;;;;;
2023/12/26 14:35:37;;;;;;;8.02;0.98;;;7.80;99.90;;;;;;6117663;22;20037;-88
2023/12/26 14:38:40;;;;;;;13.87;1.40;;;7.60;99.90;;;;;;6125498;23;20044;-84
2023/12/26 14:41:44;;;;;;;9.65;1.15;;;7.90;99.90;;;;;;6150363;23;20024;-86
2023/12/26 14:44:47;;;;;;;9.88;1.60;;;7.50;99.90;;;;;;6127293;23;20021;-86
2023/12/26 14:47:51;;;;;;;9.52;1.10;;;7.40;99.90;;;;;;6125085;23;20094;-84
2023/12/26 14:50:54;;;;;;;14.40;1.55;;;7.30;99.90;;;;;;6151539;23;20028;-85
2023/12/26 14:53:57;;;;;;;12.20;1.33;;;7.30;99.90;;;;;;6151573;23;20024;-85
2023/12/26 14:57:00;;;;;;;10.80;1.30;;;7.30;99.90;;;;;;6177229;23;20652;-85
2023/12/26 15:00:04;;;;;;;7.45;0.90;;;7.20;99.90;;;;;;6150995;23;20021;-83
2023/12/26 15:02:32;;;;;;;7.43;0.90;;;7.20;99.90;;;;;;6151262;23;20032;-85
2023/12/26 15:04:58;;;;;;;7.50;1.17;;;7.20;99.90;;;;;;6151097;23;20021;-84
2023/12/26 15:07:24;;;;;;;8.27;1.10;;;7.10;99.90;;;;;;6151604;22;20040;-83
2023/12/26 15:09:49;;;;;;;11.13;1.23;;;7.10;99.90;;;;;;6150887;23;20017;-87
2023/12/26 15:12:15;;;;;;;6.90;1.30;;;7.20;99.90;;;;;;6125349;23;20021;-85
2023/12/26 15:14:41;;;;;;;7.15;1.40;;;7.00;99.90;;;;;;6150832;23;20414;-84
2023/12/26 15:17:07;;;;;;;13.52;1.48;;;7.00;99.90;;;;;;6150953;23;20027;-84
2023/12/26 15:19:33;;;;;;;15.55;1.48;;;7.30;99.90;;;;;;6151021;23;20404;-83
2023/12/26 15:21:58;;;;;;;7.55;1.20;;;7.30;99.90;;;;;;6151112;23;20025;-86
2023/12/26 15:24:24;;;;;;;10.10;1.20;;;6.90;99.90;;;;;;6177832;23;20078;-85
2023/12/26 15:26:50;;;;;;;12.88;1.67;;;7.80;99.90;;;;;;6177983;23;20541;-84
2023/12/26 15:29:16;;;;;;;10.95;1.33;;;6.80;99.90;;;;;;6150734;23;20017;-85
2023/12/26 15:31:44;;;;;;;5.30;0.80;;;6.80;99.90;;;;;;6177447;23;20521;-83
2023/12/26 15:34:10;;;;;;;8.63;0.85;;;7.50;99.90;;;;;;6177927;22;20017;-85
2023/12/26 15:36:36;;;;;;;8.65;1.20;;;6.70;99.90;;;;;;6177412;23;20083;-85
2023/12/26 15:39:02;;;;;;;5.72;0.95;;;6.70;99.90;;;;;;6150281;23;20059;-85
2023/12/26 15:41:28;;;;;;;8.77;1.45;;;6.60;99.90;;;;;;6177680;22;20490;-84
2023/12/26 15:43:54;;;;;;;13.70;1.20;;;7.30;99.90;;;;;;6150711;23;20335;-85
2023/12/26 15:46:24;;;;;;;6.68;1.38;;;6.50;99.90;;;;;;6150649;23;20339;-85
2023/12/26 15:48:51;;;;;;;8.00;1.40;;;6.50;99.90;;;;;;6151445;22;20384;-85
2023/12/26 15:51:19;;;;;;;9.43;1.50;;;6.40;99.90;;;;;;6177647;23;20020;-84
2023/12/26 15:53:46;;;;;;;11.23;1.35;;;6.60;99.90;;;;;;6151055;23;20025;-84
2023/12/26 15:56:13;;;;;;;10.32;1.42;;;6.50;99.90;;;;;;6150813;22;20460;-84
2023/12/26 15:58:39;;;;;;;7.57;1.13;;;6.40;99.90;;;;;;6151809;22;20511;-85
2023/12/26 16:01:06;;;;;;;10.23;1.33;;;6.20;99.90;;;;;;6177128;23;20021;-85
2023/12/26 16:03:32;;;;;;;17.48;1.75;;;6.80;99.90;;;;;;6151081;23;20327;-84
2023/12/26 16:05:58;;;;;;;10.93;1.40;;;6.20;99.90;;;;;;6126040;23;20050;-85
2023/12/26 16:08:24;;;;;;;12.80;1.20;;;6.10;99.90;;;;;;6151112;23;20104;-85
2023/12/26 16:10:51;;;;;;;10.02;1.80;;;6.10;99.90;;;;;;6150856;23;20021;-84
2023/12/26 16:13:18;;;;;;;9.35;1.38;;;6.10;99.90;;;;;;6177860;22;20020;-84
2023/12/26 16:15:44;;;;;;;10.32;1.60;;;6.10;99.90;;;;;;6125920;23;20017;-83
2023/12/26 16:18:09;;;;;;;9.70;1.63;;;7.00;99.90;;;;;;6150771;23;20545;-85
2023/12/26 16:20:35;;;;;;;13.32;2.00;;;6.50;99.90;;;;;;6177431;23;20069;-84
2023/12/26 16:23:05;;;;;;;16.17;1.75;;;6.00;99.90;;;;;;6150843;23;20059;-82
2023/12/26 16:25:32;;;;;;;14.73;1.88;;;5.90;99.90;;;;;;6126458;23;20056;-84
2023/12/26 16:27:57;;;;;;;11.52;1.60;;;5.90;99.90;;;;;;6150938;23;20021;-84
2023/12/26 16:30:23;;;;;;;10.38;1.30;;;6.60;99.90;;;;;;6150377;23;20389;-84
2023/12/26 16:32:48;;;;;;;11.20;1.73;;;5.90;99.90;;;;;;6126435;23;20017;-85
2023/12/26 16:35:14;;;;;;;14.90;1.90;;;6.30;99.90;;;;;;6177061;23;20018;-84
2023/12/26 16:37:40;;;;;;;14.38;1.83;;;5.80;99.90;;;;;;6126169;23;20112;-85
2023/12/26 16:40:07;;;;;;;17.50;2.28;;;5.80;99.90;;;;;;6151057;23;20105;-85
2023/12/26 16:42:33;;;;;;;12.85;1.80;;;5.80;99.90;;;;;;6150417;23;20031;-84
2023/12/26 16:44:59;;;;;;;11.57;1.85;;;6.30;99.90;;;;;;6126383;23;20017;-84
2023/12/26 16:47:26;;;;;;;11.55;1.63;;;6.30;99.90;;;;;;6150124;23;20096;-84
2023/12/26 16:49:53;;;;;;;9.73;1.58;;;5.70;99.90;;;;;;6149969;23;20017;-85
2023/12/26 16:52:19;;;;;;;19.52;2.15;;;6.10;99.90;;;;;;6177469;23;20017;-85
2023/12/26 16:54:47;;;;;;;10.07;1.60;;;6.50;99.90;;;;;;6150619;23;20063;-84
2023/12/26 16:57:13;;;;;;;10.77;1.73;;;5.90;99.90;;;;;;6126306;23;20029;-85
2023/12/26 16:59:39;;;;;;;16.67;2.50;;;6.00;99.90;;;;;;6176858;23;20024;-83
2023/12/26 17:02:05;;;;;;;19.55;2.20;;;5.50;99.90;;;;;;6177833;23;20025;-87
2023/12/26 17:04:31;;;;;;;17.27;2.05;;;5.90;99.90;;;;;;6151368;22;20017;-85
2023/12/26 17:06:56;;;;;;;17.13;2.22;;;5.50;99.90;;;;;;6151205;23;20032;-85
2023/12/26 17:09:22;;;;;;;14.00;2.67;;;6.40;99.90;;;;;;6178668;23;20021;-86
2023/12/26 17:11:49;;;;;;;18.60;2.13;;;6.20;99.90;;;;;;6177805;23;20020;-85
2023/12/26 17:14:15;;;;;;;19.17;2.40;;;6.20;99.90;;;;;;6151545;23;20104;-86
2023/12/26 17:16:41;;;;;;;17.27;2.30;;;5.40;99.90;;;;;;6177898;22;20049;-84
2023/12/26 17:19:07;;;;;;;25.95;2.58;;;5.40;99.90;;;;;;6151038;22;20028;-85
2023/12/26 17:21:33;;;;;;;17.77;1.88;;;5.40;99.90;;;;;;6151948;22;20353;-85
2023/12/26 17:23:58;;;;;;;12.23;2.10;;;5.50;99.90;;;;;;6178191;23;20021;-85
2023/12/26 17:26:24;;;;;;;15.52;2.45;;;5.30;99.90;;;;;;6150540;23;20025;-86
2023/12/26 17:28:55;;;;;;;11.35;1.65;;;5.30;99.90;;;;;;6152067;23;20433;-86
2023/12/26 17:31:20;;;;;;;16.02;2.17;;;5.20;99.90;;;;;;6151301;23;20020;-86
2023/12/26 17:33:47;;;;;;;11.38;2.03;;;5.70;99.90;;;;;;6176748;23;20021;-84
2023/12/26 17:36:13;;;;;;;13.82;1.83;;;5.40;99.90;;;;;;6176340;22;20041;-84
2023/12/26 17:38:43;;;;;;;15.18;2.50;;;5.30;99.90;;;;;;6125921;23;20346;-87
2023/12/26 17:41:11;;;;;;;15.48;2.08;;;5.60;99.90;;;;;;6176950;22;20021;-85
2023/12/26 17:43:37;;;;;;;15.00;2.25;;;5.10;99.90;;;;;;6126000;23;20052;-86
2023/12/26 17:46:03;;;;;;;13.82;2.55;;;6.00;99.90;;;;;;6125840;23;20020;-86
2023/12/26 17:48:29;;;;;;;15.90;1.80;;;5.00;99.90;;;;;;6125649;23;20017;-85
2023/12/26 17:50:55;;;;;;;18.98;2.80;;;5.00;99.90;;;;;;6177505;22;20024;-86
2023/12/26 17:53:21;;;;;;;17.05;2.78;;;6.20;99.90;;;;;;6151582;23;20021;-87
2023/12/26 17:55:47;;;;;;;15.20;2.53;;;4.50;99.90;;;;;;6151542;23;20028;-86
2023/12/26 17:58:20;;;;;;;15.18;2.35;;;4.90;99.90;;;;;;6151408;22;20476;-88
2023/12/26 18:00:51;;;;;;;19.85;2.60;;;4.90;99.90;;;;;;6150746;22;20023;-88
2023/12/26 18:03:23;;;;;;;23.20;2.22;;;6.00;99.90;;;;;;6129001;22;20346;-86
2023/12/26 18:06:23;;;;;;;15.95;2.50;;;5.50;99.90;;;;;;6150655;23;20021;-89
2023/12/26 18:08:52;;;;;;;16.55;2.58;;;4.80;99.90;;;;;;6183262;23;20032;-89
2023/12/26 18:11:23;;;;;;;13.02;2.35;;;5.00;99.90;;;;;;6159078;23;20020;-87
2023/12/26 18:14:34;;;;;;;18.35;3.03;;;4.80;99.90;;;;;;6183787;23;20017;-88
2023/12/26 18:17:13;;;;;;;15.85;3.17;;;4.90;99.90;;;;;;6183796;23;20101;-86
2023/12/26 18:20:16;;;;;;;12.38;2.63;;;4.60;99.90;;;;;;6204890;23;20051;-87
2023/12/26 18:23:12;;;;;;;15.95;2.55;;;4.60;99.90;;;;;;6183168;23;20021;-88
2023/12/26 18:25:40;;;;;;;18.48;2.85;;;4.60;99.90;;;;;;6125147;23;20024;-86
2023/12/26 18:28:15;;;;;;;18.73;3.17;;;4.50;99.90;;;;;;6161227;22;20084;-89
2023/12/26 18:30:50;;;;;;;17.08;2.63;;;5.00;99.90;;;;;;6282235;22;20010;-87
2023/12/26 18:33:26;;;;;;;14.80;3.50;;;5.20;99.90;;;;;;6282761;22;20015;-88
2023/12/26 18:36:06;;;;;;;17.40;2.53;;;4.50;99.90;;;;;;6281897;22;20321;-88
2023/12/26 18:38:50;;;;;;;19.30;2.45;;;5.50;99.90;;;;;;6280733;22;20019;-87
2023/12/26 18:42:19;;;;;;;16.50;2.05;;;4.40;99.90;;;;;;6281702;22;20022;-89
2023/12/26 18:44:49;;;;;;;10.30;2.38;;;3.90;99.90;;;;;;6209912;22;20020;-86
2023/12/26 18:47:24;;;;;;;19.35;1.92;;;4.30;99.90;;;;;;6208508;23;20389;-89
2023/12/26 18:50:08;;;;;;;24.00;3.03;;;5.40;99.90;;;;;;6183545;23;20012;-88
2023/12/26 18:52:45;;;;;;;13.25;2.45;;;4.30;99.90;;;;;;6094780;23;20025;-86
2023/12/26 18:55:11;;;;;;;10.15;2.17;;;5.40;99.90;;;;;;6094754;23;20134;-86
2023/12/26 18:57:39;;;;;;;19.30;2.50;;;4.80;99.90;;;;;;6120003;23;20026;-87
2023/12/26 19:00:08;;;;;;;16.02;2.35;;;4.80;99.90;;;;;;6095591;23;20018;-88
2023/12/26 19:02:34;;;;;;;16.55;2.13;;;4.20;99.90;;;;;;6071368;23;20402;-87
2023/12/26 19:05:19;;;;;;;14.52;2.60;;;4.20;99.90;;;;;;6095308;23;20026;-89
2023/12/26 19:07:54;;;;;;;18.50;2.80;;;4.20;99.90;;;;;;6095016;23;20018;-89
2023/12/26 19:10:25;;;;;;;20.15;2.60;;;4.50;99.90;;;;;;6094041;23;20455;-87
2023/12/26 19:12:53;;;;;;;17.83;2.65;;;4.80;99.90;;;;;;6094504;23;20022;-89
2023/12/26 19:15:21;;;;;;;18.98;2.45;;;5.10;99.90;;;;;;6094869;23;20049;-88
2023/12/26 19:20:35;;;;;;;12.95;2.05;;;4.20;99.90;;;;;;6141867;23;20032;-86
2023/12/26 19:23:32;;;;;;;22.23;2.92;;;4.10;99.90;;;;;;6264803;22;20591;-87
2023/12/26 19:26:07;;;;;;;15.73;2.35;;;3.90;99.90;;;;;;6280949;22;20620;-88
2023/12/26 19:28:33;;;;;;;17.80;2.45;;;3.30;99.90;;;;;;6282686;22;20108;-87
2023/12/26 19:31:00;;;;;;;13.48;2.30;;;4.10;99.90;;;;;;6283143;22;20387;-88
2023/12/26 19:33:26;;;;;;;12.95;2.38;;;5.10;99.90;;;;;;6308610;22;20041;-88
2023/12/26 19:36:04;;;;;;;13.02;2.97;;;4.60;99.90;;;;;;6283346;22;20015;-88
2023/12/26 19:38:31;;;;;;;23.73;2.47;;;3.60;99.90;;;;;;6282965;22;20022;-87
2023/12/26 19:40:58;;;;;;;12.25;2.15;;;4.10;99.90;;;;;;6282108;22;20025;-87
2023/12/26 19:43:25;;;;;;;17.20;2.85;;;4.10;99.90;;;;;;6302812;22;20094;-88
2023/12/26 19:45:50;;;;;;;21.67;3.58;;;4.90;99.90;;;;;;6282188;22;20064;-86
2023/12/26 19:52:05;;;;;;;15.77;3.15;;;4.00;99.90;;;;;;6306417;22;20019;-88
2023/12/26 19:57:59;;;;;;;15.27;2.38;;;4.00;99.90;;;;;;6335715;22;20050;-88
2023/12/26 20:00:33;;;;;;;14.60;3.17;;;4.60;99.90;;;;;;6284685;22;20019;-87
2023/12/26 20:02:59;;;;;;;14.70;2.65;;;4.70;99.90;;;;;;6308862;22;20018;-86
2023/12/26 20:05:25;;;;;;;10.68;2.50;;;4.90;99.90;;;;;;6336272;22;20011;-87
2023/12/26 20:08:23;;;;;;;22.40;3.03;;;4.70;99.90;;;;;;6308682;22;20029;-88
2023/12/26 20:11:21;;;;;;;19.17;2.65;;;4.90;99.90;;;;;;6245371;22;20054;-86
2023/12/26 20:13:47;;;;;;;17.80;2.03;;;4.10;99.90;;;;;;6244757;22;20019;-87
2023/12/26 20:16:12;;;;;;;16.55;2.40;;;4.50;99.90;;;;;;6245404;22;20020;-87
2023/12/26 20:18:41;;;;;;;24.63;2.80;;;5.20;99.90;;;;;;6245323;22;20059;-88
2023/12/26 20:21:24;;;;;;;13.43;2.05;;;3.30;99.90;;;;;;6219131;22;20106;-88
2023/12/26 20:23:53;;;;;;;12.50;2.25;;;5.20;99.90;;;;;;6245301;22;20015;-86
2023/12/26 20:26:22;;;;;;;12.38;2.30;;;4.10;99.90;;;;;;6244818;22;20029;-88
2023/12/26 20:28:50;;;;;;;17.23;2.45;;;4.20;99.90;;;;;;6243763;22;20038;-87
2023/12/26 20:31:22;;;;;;;15.60;2.22;;;4.00;99.90;;;;;;6244835;22;20027;-90
2023/12/26 20:34:12;;;;;;;14.68;2.65;;;3.70;99.90;;;;;;6211496;22;20483;-87
2023/12/26 20:39:36;;;;;;;10.57;1.73;;;5.00;99.90;;;;;;6261505;22;20353;-88
2023/12/26 20:42:16;;;;;;;15.57;2.30;;;5.00;99.90;;;;;;6264584;22;20031;-88
2023/12/26 20:44:48;;;;;;;11.10;1.77;;;4.90;99.90;;;;;;6251660;22;20081;-88
2023/12/26 20:47:19;;;;;;;23.67;2.70;;;4.90;99.90;;;;;;6250682;22;20021;-88
2023/12/26 20:49:51;;;;;;;16.38;2.53;;;4.80;99.90;;;;;;6277627;22;20072;-87
2023/12/26 20:52:16;;;;;;;10.73;2.08;;;5.00;99.90;;;;;;6276806;22;20027;-89
2023/12/26 20:54:51;;;;;;;11.07;2.38;;;4.40;99.90;;;;;;6277466;22;20040;-88
2023/12/26 20:57:17;;;;;;;12.55;2.20;;;4.20;99.90;;;;;;6251880;22;20031;-86
2023/12/26 20:59:50;;;;;;;15.95;2.10;;;4.70;99.90;;;;;;6251377;22;20019;-88
2023/12/26 21:02:25;;;;;;;15.98;2.17;;;3.90;99.90;;;;;;6252423;22;20026;-88
2023/12/26 21:04:51;;;;;;;10.18;1.90;;;5.00;99.90;;;;;;6277197;22;20019;-88
2023/12/26 21:07:53;;;;;;;13.60;3.38;;;4.60;99.90;;;;;;6252001;22;20030;-87
2023/12/26 21:10:31;;;;;;;20.65;3.08;;;3.20;99.90;;;;;;6246516;22;20019;-88
2023/12/26 21:14:19;;;;;;;18.25;2.45;;;4.70;99.90;;;;;;6250775;22;20027;-88
2023/12/26 21:17:32;;;;;;;;;;;;;;;;;;;;;
2023/12/26 21:20:07;;;;;;;16.85;2.83;;;3.80;99.90;;;;;;6034631;23;20023;-89
2023/12/26 21:26:49;;;;;;;10.73;2.22;;;4.20;99.90;;;;;;5823281;24;20034;-90
2023/12/26 21:29:21;;;;;;;12.68;3.22;;;4.60;99.90;;;;;;5811377;24;20210;-87
2023/12/26 21:31:47;;;;;;;8.10;2.15;;;4.20;99.90;;;;;;5816689;24;20022;-87
2023/12/26 21:34:12;;;;;;;14.82;1.92;;;4.40;99.90;;;;;;5817527;24;20022;-85
2023/12/26 21:53:02;;;;;;;10.20;2.13;;;3.30;99.90;;;;;;5790132;21;22909340;-89
2023/12/26 21:56:06;;;;;;;10.07;1.85;;;3.40;99.90;;;;;;5964197;24;20218;-89
2023/12/26 21:59:32;;;;;;;14.77;2.00;;;3.00;99.90;;;;;;5960624;24;20561;-89
2023/12/26 22:02:39;;;;;;;11.25;1.90;;;3.30;99.90;;;;;;5960095;23;20028;-89
